sensor_id;sensor_type;location;lat;lon;timestamp;pressure;altitude;pressure_sealevel;temperature;humidity
39823;BME280;25499;53.958;10.970;2023-08-20T06:44:11;101952.31;;;17.82;100.00
39823;BME280;25499;53.958;10.970;2023-08-20T06:50:45;101970.47;;;18.05;100.00
39823;BME280;25499;53.958;10.970;2023-08-20T06:54:00;101975.75;;;18.05;100.00
39823;BME280;25499;53.958;10.970;2023-08-20T06:57:13;101969.47;;;18.14;100.00
39823;BME280;25499;53.958;10.970;2023-08-20T07:00:34;101963.16;;;18.24;100.00
39823;BME280;25499;53.958;10.970;2023-08-20T07:24:20;101962.28;;;18.76;100.00
39823;BME280;25499;53.958;10.970;2023-08-20T07:50:09;101987.66;;;19.77;100.00
39823;BME280;25499;53.958;10.970;2023-08-20T07:52:36;101994.53;;;19.86;100.00
39823;BME280;25499;53.958;10.970;2023-08-20T07:55:04;101998.81;;;19.91;100.00
39823;BME280;25499;53.958;10.970;2023-08-20T07:57:31;101997.94;;;19.91;100.00
39823;BME280;25499;53.958;10.970;2023-08-20T07:59:57;101987.38;;;19.91;100.00
39823;BME280;25499;53.958;10.970;2023-08-20T08:02:24;102000.44;;;19.97;100.00
39823;BME280;25499;53.958;10.970;2023-08-20T08:04:51;102013.06;;;20.61;100.00
39823;BME280;25499;53.958;10.970;2023-08-20T08:07:19;102011.09;;;21.03;100.00
39823;BME280;25499;53.958;10.970;2023-08-20T08:09:46;102003.94;;;21.38;100.00
39823;BME280;25499;53.958;10.970;2023-08-20T08:12:13;101995.16;;;21.69;100.00
39823;BME280;25499;53.958;10.970;2023-08-20T08:14:39;101981.56;;;22.10;100.00
39823;BME280;25499;53.958;10.970;2023-08-20T08:17:06;101958.63;;;21.79;96.54
39823;BME280;25499;53.958;10.970;2023-08-20T08:19:33;101972.03;;;21.43;95.91
39823;BME280;25499;53.958;10.970;2023-08-20T08:22:00;102000.53;;;21.96;96.50
39823;BME280;25499;53.958;10.970;2023-08-20T08:24:29;101988.31;;;22.20;95.91
39823;BME280;25499;53.958;10.970;2023-08-20T08:26:55;101989.03;;;22.52;94.58
39823;BME280;25499;53.958;10.970;2023-08-20T08:29:22;101966.09;;;22.23;91.95
39823;BME280;25499;53.958;10.970;2023-08-20T08:34:15;102001.41;;;22.53;91.48
39823;BME280;25499;53.958;10.970;2023-08-20T08:36:43;101986.88;;;22.90;90.13
39823;BME280;25499;53.958;10.970;2023-08-20T08:39:10;101987.22;;;22.79;90.46
39823;BME280;25499;53.958;10.970;2023-08-20T08:41:38;101972.16;;;22.26;89.10
39823;BME280;25499;53.958;10.970;2023-08-20T08:44:08;102007.44;;;22.58;90.18
39823;BME280;25499;53.958;10.970;2023-08-20T08:46:36;101999.50;;;23.10;89.52
39823;BME280;25499;53.958;10.970;2023-08-20T08:49:03;101969.78;;;22.97;87.24
39823;BME280;25499;53.958;10.970;2023-08-20T08:51:31;101976.91;;;23.45;86.17
39823;BME280;25499;53.958;10.970;2023-08-20T08:54:00;101981.59;;;24.08;84.80
39823;BME280;25499;53.958;10.970;2023-08-20T08:56:28;101935.69;;;24.03;81.95
39823;BME280;25499;53.958;10.970;2023-08-20T08:58:56;101949.94;;;24.24;80.92
39823;BME280;25499;53.958;10.970;2023-08-20T09:01:23;101994.06;;;24.72;82.09
39823;BME280;25499;53.958;10.970;2023-08-20T09:03:52;101968.69;;;25.05;80.11
39823;BME280;25499;53.958;10.970;2023-08-20T09:06:48;101933.78;;;25.11;77.85
39823;BME280;25499;53.958;10.970;2023-08-20T09:10:00;101944.47;;;24.70;77.74
39823;BME280;25499;53.958;10.970;2023-08-20T09:12:59;101954.97;;;25.14;77.17
39823;BME280;25499;53.958;10.970;2023-08-20T09:15:34;101936.50;;;25.49;75.83
39823;BME280;25499;53.958;10.970;2023-08-20T09:29:09;101954.81;;;25.38;74.70
39823;BME280;25499;53.958;10.970;2023-08-20T09:42:17;101917.88;;;26.39;70.60
39823;BME280;25499;53.958;10.970;2023-08-20T09:45:25;101896.09;;;26.47;69.15
39823;BME280;25499;53.958;10.970;2023-08-20T09:48:39;101930.66;;;27.03;68.59
39823;BME280;25499;53.958;10.970;2023-08-20T09:51:25;101873.66;;;27.02;66.78
39823;BME280;25499;53.958;10.970;2023-08-20T09:55:00;101861.00;;;26.55;66.64
39823;BME280;25499;53.958;10.970;2023-08-20T11:27:05;101776.47;;;30.31;55.67
39823;BME280;25499;53.958;10.970;2023-08-20T11:30:49;101713.22;;;29.61;55.00
39823;BME280;25499;53.958;10.970;2023-08-20T11:34:13;101701.91;;;29.83;54.10
39823;BME280;25499;53.958;10.970;2023-08-20T13:11:35;101711.53;;;27.47;58.44
39823;BME280;25499;53.958;10.970;2023-08-20T13:14:03;101742.44;;;27.05;60.40
39823;BME280;25499;53.958;10.970;2023-08-20T13:16:31;101759.69;;;27.15;60.94
39823;BME280;25499;53.958;10.970;2023-08-20T13:19:08;101744.03;;;27.09;60.48
39823;BME280;25499;53.958;10.970;2023-08-20T13:21:35;101708.25;;;26.64;60.38
39823;BME280;25499;53.958;10.970;2023-08-20T13:24:04;101717.22;;;26.46;60.82
39823;BME280;25499;53.958;10.970;2023-08-20T13:26:36;101751.38;;;26.56;61.35
39823;BME280;25499;53.958;10.970;2023-08-20T13:29:03;101780.50;;;26.61;61.74
39823;BME280;25499;53.958;10.970;2023-08-20T13:31:32;101785.06;;;26.59;62.08
39823;BME280;25499;53.958;10.970;2023-08-20T13:34:05;101773.69;;;26.55;61.65
39823;BME280;25499;53.958;10.970;2023-08-20T13:36:41;101771.16;;;26.36;61.90
39823;BME280;25499;53.958;10.970;2023-08-20T13:39:14;101741.13;;;25.98;61.67
39823;BME280;25499;53.958;10.970;2023-08-20T13:41:48;101775.03;;;25.78;62.93
39823;BME280;25499;53.958;10.970;2023-08-20T13:44:19;101798.78;;;25.83;63.92
39823;BME280;25499;53.958;10.970;2023-08-20T13:46:48;101772.03;;;25.84;62.96
39823;BME280;25499;53.958;10.970;2023-08-20T13:49:16;101752.81;;;25.78;62.79
39823;BME280;25499;53.958;10.970;2023-08-20T13:51:51;101762.56;;;25.79;62.59
39823;BME280;25499;53.958;10.970;2023-08-20T13:54:24;101761.28;;;25.86;62.99
39823;BME280;25499;53.958;10.970;2023-08-20T13:57:00;101762.41;;;25.82;62.96
39823;BME280;25499;53.958;10.970;2023-08-20T13:59:29;101761.97;;;25.90;62.58
39823;BME280;25499;53.958;10.970;2023-08-20T14:02:02;101805.97;;;26.00;63.70
39823;BME280;25499;53.958;10.970;2023-08-20T14:04:30;101793.31;;;26.03;63.71
39823;BME280;25499;53.958;10.970;2023-08-20T14:06:57;101781.38;;;25.93;63.56
39823;BME280;25499;53.958;10.970;2023-08-20T14:09:23;101737.59;;;25.62;62.71
39823;BME280;25499;53.958;10.970;2023-08-20T14:11:51;101738.03;;;25.36;63.23
39823;BME280;25499;53.958;10.970;2023-08-20T14:14:19;101786.47;;;25.26;64.94
39823;BME280;25499;53.958;10.970;2023-08-20T14:16:46;101787.03;;;25.14;64.93
39823;BME280;25499;53.958;10.970;2023-08-20T14:19:14;101822.63;;;25.13;66.27
39823;BME280;25499;53.958;10.970;2023-08-20T14:21:41;101805.06;;;25.28;65.77
39823;BME280;25499;53.958;10.970;2023-08-20T14:24:08;101766.72;;;25.30;64.29
39823;BME280;25499;53.958;10.970;2023-08-20T14:26:35;101792.44;;;25.31;64.88
39823;BME280;25499;53.958;10.970;2023-08-20T14:29:02;101797.41;;;25.20;65.49
39823;BME280;25499;53.958;10.970;2023-08-20T14:31:31;101771.19;;;25.11;65.48
39823;BME280;25499;53.958;10.970;2023-08-20T14:33:58;101746.72;;;25.03;64.11
39823;BME280;25499;53.958;10.970;2023-08-20T14:36:25;101796.91;;;25.12;65.48
39823;BME280;25499;53.958;10.970;2023-08-20T14:38:52;101782.44;;;25.18;65.03
39823;BME280;25499;53.958;10.970;2023-08-20T14:41:19;101820.59;;;25.18;66.27
39823;BME280;25499;53.958;10.970;2023-08-20T14:43:46;101770.09;;;25.15;65.15
39823;BME280;25499;53.958;10.970;2023-08-20T14:46:13;101813.38;;;25.20;66.16
39823;BME280;25499;53.958;10.970;2023-08-20T14:48:41;101802.34;;;25.29;65.90
39823;BME280;25499;53.958;10.970;2023-08-20T14:51:09;101789.78;;;25.31;65.55
39823;BME280;25499;53.958;10.970;2023-08-20T14:53:36;101797.25;;;25.23;65.89
39823;BME280;25499;53.958;10.970;2023-08-20T14:56:04;101789.13;;;25.07;65.83
39823;BME280;25499;53.958;10.970;2023-08-20T14:58:31;101799.41;;;25.15;66.28
39823;BME280;25499;53.958;10.970;2023-08-20T15:00:59;101792.50;;;25.11;66.22
39823;BME280;25499;53.958;10.970;2023-08-20T15:03:26;101790.31;;;25.02;66.48
39823;BME280;25499;53.958;10.970;2023-08-20T15:05:55;101791.16;;;24.83;66.78
39823;BME280;25499;53.958;10.970;2023-08-20T15:08:23;101806.13;;;24.67;67.49
39823;BME280;25499;53.958;10.970;2023-08-20T15:10:56;101832.88;;;24.64;68.57
39823;BME280;25499;53.958;10.970;2023-08-20T15:13:24;101850.88;;;24.58;69.98
39823;BME280;25499;53.958;10.970;2023-08-20T15:15:52;101811.84;;;24.57;68.88
39823;BME280;25499;53.958;10.970;2023-08-20T15:18:19;101826.84;;;24.79;68.88
39823;BME280;25499;53.958;10.970;2023-08-20T15:20:55;101795.13;;;24.93;67.75
39823;BME280;25499;53.958;10.970;2023-08-20T15:23:22;101791.81;;;24.88;67.46
39823;BME280;25499;53.958;10.970;2023-08-20T15:25:51;101764.34;;;24.86;66.61
39823;BME280;25499;53.958;10.970;2023-08-20T15:28:18;101759.25;;;24.82;66.60
39823;BME280;25499;53.958;10.970;2023-08-20T15:30:45;101777.03;;;24.81;66.94
39823;BME280;25499;53.958;10.970;2023-08-20T15:33:12;101792.59;;;24.71;67.61
39823;BME280;25499;53.958;10.970;2023-08-20T15:35:40;101797.59;;;24.58;68.33
39823;BME280;25499;53.958;10.970;2023-08-20T15:38:08;101802.81;;;24.41;68.98
39823;BME280;25499;53.958;10.970;2023-08-20T15:40:36;101806.22;;;24.24;69.67
39823;BME280;25499;53.958;10.970;2023-08-20T15:43:03;101822.09;;;24.26;70.18
39823;BME280;25499;53.958;10.970;2023-08-20T15:45:30;101846.19;;;24.23;71.22
39823;BME280;25499;53.958;10.970;2023-08-20T15:47:57;101842.06;;;24.15;71.56
39823;BME280;25499;53.958;10.970;2023-08-20T15:50:24;101853.50;;;24.17;72.52
39823;BME280;25499;53.958;10.970;2023-08-20T15:52:52;101855.03;;;24.23;72.79
39823;BME280;25499;53.958;10.970;2023-08-20T15:55:21;101861.81;;;24.30;73.06
39823;BME280;25499;53.958;10.970;2023-08-20T15:57:49;101842.88;;;24.38;72.47
39823;BME280;25499;53.958;10.970;2023-08-20T16:00:17;101821.63;;;24.36;71.72
39823;BME280;25499;53.958;10.970;2023-08-20T16:02:46;101780.44;;;24.25;70.29
39823;BME280;25499;53.958;10.970;2023-08-20T16:05:14;101807.78;;;24.08;71.13
39823;BME280;25499;53.958;10.970;2023-08-20T16:07:41;101843.53;;;24.02;72.85
39823;BME280;25499;53.958;10.970;2023-08-20T16:10:09;101857.00;;;23.97;73.92
39823;BME280;25499;53.958;10.970;2023-08-20T16:12:38;101848.41;;;23.91;74.23
39823;BME280;25499;53.958;10.970;2023-08-20T16:15:09;101844.28;;;23.83;73.97
39823;BME280;25499;53.958;10.970;2023-08-20T16:17:36;101829.47;;;23.76;73.67
39823;BME280;25499;53.958;10.970;2023-08-20T16:20:03;101853.78;;;23.67;74.67
39823;BME280;25499;53.958;10.970;2023-08-20T16:22:32;101851.22;;;23.64;74.89
39823;BME280;25499;53.958;10.970;2023-08-20T16:24:59;101845.13;;;23.62;74.28
39823;BME280;25499;53.958;10.970;2023-08-20T16:27:26;101844.25;;;23.61;74.42
39823;BME280;25499;53.958;10.970;2023-08-20T16:29:54;101834.81;;;23.54;74.27
39823;BME280;25499;53.958;10.970;2023-08-20T16:32:21;101805.81;;;23.48;73.39
39823;BME280;25499;53.958;10.970;2023-08-20T16:34:48;101813.22;;;23.40;73.98
39823;BME280;25499;53.958;10.970;2023-08-20T16:37:15;101810.81;;;23.34;73.90
39823;BME280;25499;53.958;10.970;2023-08-20T16:39:42;101816.38;;;23.27;74.44
39823;BME280;25499;53.958;10.970;2023-08-20T16:42:09;101810.25;;;23.25;74.37
39823;BME280;25499;53.958;10.970;2023-08-20T16:44:36;101811.28;;;23.21;74.54
39823;BME280;25499;53.958;10.970;2023-08-20T16:47:05;101814.19;;;23.15;75.00
39823;BME280;25499;53.958;10.970;2023-08-20T16:49:32;101837.13;;;23.18;75.45
39823;BME280;25499;53.958;10.970;2023-08-20T16:51:59;101809.63;;;23.19;74.77
39823;BME280;25499;53.958;10.970;2023-08-20T16:54:26;101804.53;;;23.13;74.31
39823;BME280;25499;53.958;10.970;2023-08-20T16:56:53;101813.56;;;23.08;74.50
39823;BME280;25499;53.958;10.970;2023-08-20T16:59:20;101819.19;;;22.99;75.01
39823;BME280;25499;53.958;10.970;2023-08-20T17:01:46;101828.31;;;22.92;76.10
39823;BME280;25499;53.958;10.970;2023-08-20T17:04:15;101833.78;;;22.87;76.01
39823;BME280;25499;53.958;10.970;2023-08-20T17:06:42;101821.63;;;22.82;76.11
39823;BME280;25499;53.958;10.970;2023-08-20T17:09:09;101839.41;;;22.80;77.04
39823;BME280;25499;53.958;10.970;2023-08-20T17:11:36;101856.00;;;22.61;79.25
39823;BME280;25499;53.958;10.970;2023-08-20T17:14:03;101864.88;;;22.60;80.44
39823;BME280;25499;53.958;10.970;2023-08-20T17:16:29;101886.50;;;22.49;82.91
39823;BME280;25499;53.958;10.970;2023-08-20T17:18:56;101879.69;;;22.42;83.48
39823;BME280;25499;53.958;10.970;2023-08-20T17:21:25;101875.25;;;22.43;84.32
39823;BME280;25499;53.958;10.970;2023-08-20T17:23:52;101857.50;;;22.43;83.66
39823;BME280;25499;53.958;10.970;2023-08-20T17:26:18;101852.16;;;22.45;83.22
39823;BME280;25499;53.958;10.970;2023-08-20T17:28:45;101852.16;;;22.45;83.08
39823;BME280;25499;53.958;10.970;2023-08-20T17:31:12;101845.06;;;22.45;82.92
39823;BME280;25499;53.958;10.970;2023-08-20T17:33:39;101851.06;;;22.50;82.58
39823;BME280;25499;53.958;10.970;2023-08-20T17:36:07;101850.00;;;22.56;82.00
39823;BME280;25499;53.958;10.970;2023-08-20T17:38:36;101836.63;;;22.59;81.96
39823;BME280;25499;53.958;10.970;2023-08-20T17:41:03;101836.63;;;22.59;81.50
39823;BME280;25499;53.958;10.970;2023-08-20T17:43:30;101847.09;;;22.62;82.11
39823;BME280;25499;53.958;10.970;2023-08-20T17:45:57;101854.16;;;22.63;82.14
39823;BME280;25499;53.958;10.970;2023-08-20T17:48:23;101848.75;;;22.66;81.84
39823;BME280;25499;53.958;10.970;2023-08-20T17:50:52;101842.50;;;22.67;81.60
39823;BME280;25499;53.958;10.970;2023-08-20T17:53:23;101854.16;;;22.63;82.06
39823;BME280;25499;53.958;10.970;2023-08-20T17:55:53;101874.69;;;22.58;83.71
39823;BME280;25499;53.958;10.970;2023-08-20T17:58:20;101876.69;;;22.51;85.09
39823;BME280;25499;53.958;10.970;2023-08-20T18:00:47;101877.84;;;22.44;84.96
39823;BME280;25499;53.958;10.970;2023-08-20T18:03:13;101844.53;;;22.35;82.83
39823;BME280;25499;53.958;10.970;2023-08-20T18:05:41;101825.31;;;22.27;81.33
39823;BME280;25499;53.958;10.970;2023-08-20T18:08:09;101846.97;;;22.15;81.89
39823;BME280;25499;53.958;10.970;2023-08-20T18:10:36;101837.59;;;22.05;81.70
39823;BME280;25499;53.958;10.970;2023-08-20T18:13:04;101838.81;;;21.94;81.80
39823;BME280;25499;53.958;10.970;2023-08-20T18:15:32;101863.06;;;21.82;82.86
39823;BME280;25499;53.958;10.970;2023-08-20T18:17:59;101860.75;;;21.73;82.92
39823;BME280;25499;53.958;10.970;2023-08-20T18:20:27;101872.69;;;21.58;83.68
39823;BME280;25499;53.958;10.970;2023-08-20T18:22:53;101886.22;;;21.49;84.74
39823;BME280;25499;53.958;10.970;2023-08-20T18:25:20;101887.19;;;21.45;85.35
39823;BME280;25499;53.958;10.970;2023-08-20T18:27:47;101914.75;;;21.39;86.58
39823;BME280;25499;53.958;10.970;2023-08-20T18:30:15;101919.44;;;21.29;88.65
39823;BME280;25499;53.958;10.970;2023-08-20T18:32:42;101930.81;;;21.33;89.49
39823;BME280;25499;53.958;10.970;2023-08-20T18:35:09;101911.34;;;21.35;88.05
39823;BME280;25499;53.958;10.970;2023-08-20T18:37:36;101920.06;;;21.39;88.21
39823;BME280;25499;53.958;10.970;2023-08-20T18:40:04;101921.94;;;21.35;88.20
39823;BME280;25499;53.958;10.970;2023-08-20T18:42:33;101942.47;;;21.27;89.89
39823;BME280;25499;53.958;10.970;2023-08-20T18:45:00;101932.44;;;21.07;90.63
39823;BME280;25499;53.958;10.970;2023-08-20T18:47:28;101921.19;;;20.99;89.65
39823;BME280;25499;53.958;10.970;2023-08-20T18:49:55;101913.69;;;20.83;89.41
39823;BME280;25499;53.958;10.970;2023-08-20T18:52:22;101918.22;;;20.78;89.38
39823;BME280;25499;53.958;10.970;2023-08-20T18:54:49;101928.94;;;20.74;90.76
39823;BME280;25499;53.958;10.970;2023-08-20T18:57:16;101923.97;;;20.60;90.88
39823;BME280;25499;53.958;10.970;2023-08-20T18:59:43;101924.31;;;20.47;91.61
39823;BME280;25499;53.958;10.970;2023-08-20T19:02:10;101937.72;;;20.40;92.48
39823;BME280;25499;53.958;10.970;2023-08-20T19:04:38;101933.38;;;20.37;91.70
39823;BME280;25499;53.958;10.970;2023-08-20T19:07:06;101936.03;;;20.37;91.44
39823;BME280;25499;53.958;10.970;2023-08-20T19:09:34;101947.88;;;20.21;92.80
39823;BME280;25499;53.958;10.970;2023-08-20T19:12:01;101949.88;;;20.11;94.01
39823;BME280;25499;53.958;10.970;2023-08-20T19:14:27;101953.78;;;19.96;94.66
39823;BME280;25499;53.958;10.970;2023-08-20T19:16:54;101958.41;;;19.85;95.95
39823;BME280;25499;53.958;10.970;2023-08-20T19:19:21;101966.44;;;19.80;96.94
39823;BME280;25499;53.958;10.970;2023-08-20T19:21:49;101962.25;;;19.68;97.12
39823;BME280;25499;53.958;10.970;2023-08-20T19:24:17;101967.81;;;19.56;97.93
39823;BME280;25499;53.958;10.970;2023-08-20T19:26:45;101965.38;;;19.47;98.15
39823;BME280;25499;53.958;10.970;2023-08-20T19:29:16;101962.94;;;19.36;98.98
39823;BME280;25499;53.958;10.970;2023-08-20T19:31:46;101963.03;;;19.31;98.71
39823;BME280;25499;53.958;10.970;2023-08-20T19:34:13;101970.06;;;19.32;99.52
39823;BME280;25499;53.958;10.970;2023-08-20T19:36:40;101964.84;;;19.28;99.24
39823;BME280;25499;53.958;10.970;2023-08-20T19:39:08;101964.22;;;19.16;99.63
39823;BME280;25499;53.958;10.970;2023-08-20T19:41:36;101970.41;;;19.14;99.88
39823;BME280;25499;53.958;10.970;2023-08-20T19:44:04;101959.22;;;19.03;100.00
39823;BME280;25499;53.958;10.970;2023-08-20T19:46:31;101972.41;;;19.03;100.00
39823;BME280;25499;53.958;10.970;2023-08-20T19:49:00;101973.38;;;18.97;100.00
39823;BME280;25499;53.958;10.970;2023-08-20T19:51:28;101975.22;;;18.92;100.00
39823;BME280;25499;53.958;10.970;2023-08-20T19:53:55;101970.13;;;18.82;100.00
39823;BME280;25499;53.958;10.970;2023-08-20T19:56:24;101962.28;;;18.76;100.00
39823;BME280;25499;53.958;10.970;2023-08-20T19:58:52;101962.53;;;18.62;100.00
39823;BME280;25499;53.958;10.970;2023-08-20T20:01:21;101961.84;;;18.50;100.00
39823;BME280;25499;53.958;10.970;2023-08-20T20:03:50;101968.16;;;18.41;100.00
39823;BME280;25499;53.958;10.970;2023-08-20T20:06:17;101977.78;;;18.45;100.00
39823;BME280;25499;53.958;10.970;2023-08-20T20:08:44;101987.56;;;18.38;100.00
39823;BME280;25499;53.958;10.970;2023-08-20T20:11:12;101976.34;;;18.24;100.00
